Time;durP1;ratioP1;P1;durP2;ratioP2;P2;SDS_P1;SDS_P2;PMS_P1;PMS_P2;Temp;Humidity;BMP_temperature;BMP_pressure;BME280_temperature;BME280_humidity;BME280_pressure;Samples;Min_cycle;Max_cycle;Signal;HPM_P1;HPM_P2
2021/06/01 00:01:45;;;;;;;5.43;2.80;;;;;;;;;;5010882;28;20205;-73
2021/06/01 00:04:49;;;;;;;2.50;2.30;;;;;;;;;;5003591;28;20563;-73
2021/06/01 00:07:53;;;;;;;2.73;2.53;;;;;;;;;;5018447;28;20192;-73
2021/06/01 00:10:57;;;;;;;3.17;2.60;;;;;;;;;;5035008;28;20648;-72
2021/06/01 00:14:01;;;;;;;3.27;2.67;;;;;;;;;;5028937;28;20213;-72
2021/06/01 00:17:05;;;;;;;3.90;2.50;;;;;;;;;;5034528;28;20205;-73
2021/06/01 00:20:10;;;;;;;3.50;3.03;;;;;;;;;;5007736;28;20563;-73
2021/06/01 00:23:15;;;;;;;3.97;3.13;;;;;;;;;;5033360;28;20683;-72
2021/06/01 00:26:19;;;;;;;2.97;2.67;;;;;;;;;;5027749;28;20185;-73
2021/06/01 00:29:23;;;;;;;3.00;2.70;;;;;;;;;;5020004;28;20656;-72
2021/06/01 00:32:27;;;;;;;3.97;2.87;;;;;;;;;;5032264;28;20192;-73
2021/06/01 00:35:33;;;;;;;3.13;2.80;;;;;;;;;;5022688;28;20188;-72
2021/06/01 00:38:38;;;;;;;3.00;2.70;;;;;;;;;;5026335;28;20185;-72
2021/06/01 00:41:43;;;;;;;6.83;3.17;;;;;;;;;;5034620;28;20204;-73
2021/06/01 00:44:50;;;;;;;3.10;2.70;;;;;;;;;;5006570;28;20210;-73
2021/06/01 00:47:55;;;;;;;5.47;3.03;;;;;;;;;;4994326;28;20674;-73
2021/06/01 00:51:00;;;;;;;3.47;2.77;;;;;;;;;;5008586;28;20198;-72
2021/06/01 00:54:04;;;;;;;4.47;3.23;;;;;;;;;;5002414;28;20213;-72
2021/06/01 00:57:09;;;;;;;3.27;2.97;;;;;;;;;;5014573;28;20190;-73
2021/06/01 01:00:41;;;;;;;3.23;2.60;;;;;;;;;;5015048;28;20197;-73
2021/06/01 01:03:49;;;;;;;2.83;2.50;;;;;;;;;;5021119;28;20228;-72
2021/06/01 01:07:03;;;;;;;3.90;2.83;;;;;;;;;;5003195;28;20200;-73
2021/06/01 01:10:08;;;;;;;3.63;2.80;;;;;;;;;;5014909;28;20186;-72
2021/06/01 01:13:14;;;;;;;3.47;2.83;;;;;;;;;;5015227;28;20217;-73
2021/06/01 01:16:22;;;;;;;4.10;3.07;;;;;;;;;;5014729;28;20182;-72
2021/06/01 01:19:48;;;;;;;3.97;3.30;;;;;;;;;;5015244;28;20196;-72
2021/06/01 01:22:55;;;;;;;4.40;3.30;;;;;;;;;;5032886;28;20216;-73
2021/06/01 01:26:23;;;;;;;3.90;3.27;;;;;;;;;;5022315;28;20213;-72
2021/06/01 01:29:37;;;;;;;3.97;3.13;;;;;;;;;;5017845;28;20552;-72
2021/06/01 01:32:57;;;;;;;3.87;3.47;;;;;;;;;;5014360;28;20217;-72
2021/06/01 01:36:04;;;;;;;3.10;2.80;;;;;;;;;;5019216;28;20185;-72
2021/06/01 01:39:10;;;;;;;3.57;3.10;;;;;;;;;;5016389;28;20188;-72
2021/06/01 01:42:16;;;;;;;7.43;3.20;;;;;;;;;;5033538;28;20189;-73
2021/06/01 01:45:28;;;;;;;3.73;3.10;;;;;;;;;;5028361;28;20222;-72
2021/06/01 01:51:59;;;;;;;6.73;3.37;;;;;;;;;;5026508;28;20553;-72
2021/06/01 01:55:09;;;;;;;3.57;2.93;;;;;;;;;;5016567;28;20182;-72
2021/06/01 01:58:15;;;;;;;4.43;3.13;;;;;;;;;;5007337;28;20197;-72
2021/06/01 02:01:20;;;;;;;3.23;2.83;;;;;;;;;;5013954;28;20201;-73
2021/06/01 02:04:28;;;;;;;3.20;2.90;;;;;;;;;;5013334;28;20225;-73
2021/06/01 02:07:33;;;;;;;3.60;2.93;;;;;;;;;;5027971;28;20208;-72
2021/06/01 02:10:37;;;;;;;3.67;3.27;;;;;;;;;;5014005;28;20177;-73
2021/06/01 02:13:46;;;;;;;3.20;2.90;;;;;;;;;;5013227;28;20217;-73
2021/06/01 02:16:52;;;;;;;3.87;3.23;;;;;;;;;;5028810;28;20648;-72
2021/06/01 02:19:56;;;;;;;3.80;3.30;;;;;;;;;;5008864;28;20185;-72
2021/06/01 02:26:37;;;;;;;4.43;3.60;;;;;;;;;;5019485;28;20213;-72
2021/06/01 02:29:47;;;;;;;4.13;2.97;;;;;;;;;;5013571;28;20205;-72
2021/06/01 02:32:54;;;;;;;4.70;3.13;;;;;;;;;;5030300;28;20216;-72
2021/06/01 02:36:00;;;;;;;3.97;3.00;;;;;;;;;;5022270;28;20204;-72
2021/06/01 02:39:05;;;;;;;3.40;3.10;;;;;;;;;;5024198;28;20197;-72
2021/06/01 02:42:10;;;;;;;3.80;3.03;;;;;;;;;;5014297;28;20648;-72
2021/06/01 02:45:22;;;;;;;4.37;3.07;;;;;;;;;;5029762;28;20205;-73
2021/06/01 02:48:27;;;;;;;3.57;2.90;;;;;;;;;;5007856;28;20564;-72
2021/06/01 02:51:34;;;;;;;3.57;3.10;;;;;;;;;;5036969;28;20197;-72
2021/06/01 02:54:38;;;;;;;3.57;3.07;;;;;;;;;;5022192;28;20724;-72
2021/06/01 02:57:43;;;;;;;3.37;2.77;;;;;;;;;;5005205;28;20193;-72
2021/06/01 03:00:47;;;;;;;3.17;2.70;;;;;;;;;;5029835;28;20200;-72
2021/06/01 03:03:53;;;;;;;3.00;2.70;;;;;;;;;;5035098;28;20228;-72
2021/06/01 03:06:57;;;;;;;5.47;3.67;;;;;;;;;;5019273;28;20223;-72
2021/06/01 03:10:03;;;;;;;3.30;3.00;;;;;;;;;;5004873;28;20203;-72
2021/06/01 03:13:08;;;;;;;5.47;3.03;;;;;;;;;;5019457;28;20591;-72
2021/06/01 03:16:14;;;;;;;10.30;2.97;;;;;;;;;;5034148;28;20197;-72
2021/06/01 03:19:18;;;;;;;4.00;3.37;;;;;;;;;;5023297;28;20193;-72
2021/06/01 03:22:22;;;;;;;6.03;2.97;;;;;;;;;;5020329;28;20181;-72
2021/06/01 03:25:26;;;;;;;4.17;2.90;;;;;;;;;;5036394;28;20209;-72
2021/06/01 03:28:32;;;;;;;3.93;3.30;;;;;;;;;;5035979;28;20185;-72
2021/06/01 03:31:36;;;;;;;3.63;3.10;;;;;;;;;;5029404;28;20196;-72
2021/06/01 03:34:40;;;;;;;4.20;3.60;;;;;;;;;;5008171;28;20221;-71
2021/06/01 03:37:45;;;;;;;3.63;3.30;;;;;;;;;;5028912;28;20197;-72
2021/06/01 03:40:49;;;;;;;3.73;3.33;;;;;;;;;;5019265;28;20193;-72
2021/06/01 03:43:53;;;;;;;6.03;3.63;;;;;;;;;;5027906;28;20224;-72
2021/06/01 03:46:57;;;;;;;5.13;3.63;;;;;;;;;;5018621;28;20196;-72
2021/06/01 03:50:03;;;;;;;4.20;3.57;;;;;;;;;;5012415;28;20658;-72
2021/06/01 03:53:07;;;;;;;7.00;3.90;;;;;;;;;;5026724;28;20220;-72
2021/06/01 03:56:11;;;;;;;4.13;3.60;;;;;;;;;;5021955;28;20186;-72
2021/06/01 03:59:16;;;;;;;4.70;4.20;;;;;;;;;;5018826;28;20193;-72
2021/06/01 04:02:21;;;;;;;4.47;3.57;;;;;;;;;;5031434;28;20217;-71
2021/06/01 04:05:25;;;;;;;5.10;3.53;;;;;;;;;;5013388;28;20599;-72
2021/06/01 04:08:30;;;;;;;4.40;3.87;;;;;;;;;;5031313;28;20185;-72
2021/06/01 04:11:34;;;;;;;5.03;4.00;;;;;;;;;;5016569;28;20197;-72
2021/06/01 04:14:38;;;;;;;5.33;3.90;;;;;;;;;;5000306;28;20257;-72
2021/06/01 04:17:43;;;;;;;4.40;3.60;;;;;;;;;;5016691;28;20568;-71
2021/06/01 04:20:48;;;;;;;5.73;4.30;;;;;;;;;;5034359;28;20184;-72
2021/06/01 04:23:52;;;;;;;6.57;3.90;;;;;;;;;;5016628;28;20216;-73
2021/06/01 04:26:59;;;;;;;4.63;4.10;;;;;;;;;;5015605;28;20683;-72
2021/06/01 04:30:06;;;;;;;8.20;3.90;;;;;;;;;;5003398;28;20648;-73
2021/06/01 04:33:14;;;;;;;7.07;3.80;;;;;;;;;;5013458;28;20220;-72
2021/06/01 04:36:18;;;;;;;6.87;4.03;;;;;;;;;;5014692;28;20186;-72
2021/06/01 04:39:22;;;;;;;7.83;4.20;;;;;;;;;;5004899;28;20186;-72
2021/06/01 04:42:26;;;;;;;8.40;3.73;;;;;;;;;;5003059;28;20576;-72
2021/06/01 04:45:30;;;;;;;5.83;4.07;;;;;;;;;;5003126;28;20217;-74
2021/06/01 04:48:34;;;;;;;4.37;3.97;;;;;;;;;;5017261;28;20201;-74
2021/06/01 04:51:39;;;;;;;5.73;4.10;;;;;;;;;;5034159;28;20204;-76
2021/06/01 04:54:43;;;;;;;11.70;4.97;;;;;;;;;;5021735;28;20220;-74
2021/06/01 04:57:47;;;;;;;5.70;4.10;;;;;;;;;;5019277;28;20181;-74
2021/06/01 05:00:51;;;;;;;7.93;4.23;;;;;;;;;;5022329;28;20213;-74
2021/06/01 05:03:55;;;;;;;13.80;5.50;;;;;;;;;;5019775;28;20220;-74
2021/06/01 05:07:00;;;;;;;16.57;5.80;;;;;;;;;;5021146;28;20209;-74
2021/06/01 05:10:05;;;;;;;8.17;5.67;;;;;;;;;;5014224;28;20524;-74
2021/06/01 05:13:10;;;;;;;10.07;5.43;;;;;;;;;;5002134;28;20217;-73
2021/06/01 05:16:14;;;;;;;6.73;5.30;;;;;;;;;;5027624;28;20189;-74
2021/06/01 05:19:19;;;;;;;6.50;5.10;;;;;;;;;;5032454;28;20548;-74
2021/06/01 05:22:23;;;;;;;7.10;4.67;;;;;;;;;;5013847;28;20181;-74
2021/06/01 05:25:27;;;;;;;5.87;4.70;;;;;;;;;;5025122;28;20212;-74
2021/06/01 05:28:32;;;;;;;11.33;5.77;;;;;;;;;;5013955;28;20197;-74
2021/06/01 05:34:58;;;;;;;13.27;5.83;;;;;;;;;;5019549;28;20197;-74
2021/06/01 05:38:02;;;;;;;10.83;5.43;;;;;;;;;;5004226;28;20180;-74
2021/06/01 05:41:06;;;;;;;15.67;6.03;;;;;;;;;;5021959;28;20181;-74
2021/06/01 05:44:10;;;;;;;15.57;5.57;;;;;;;;;;5025507;28;20221;-74
2021/06/01 05:47:15;;;;;;;10.47;5.53;;;;;;;;;;5013974;28;20212;-74
2021/06/01 05:50:19;;;;;;;11.60;5.77;;;;;;;;;;5001977;28;20197;-74
2021/06/01 05:53:24;;;;;;;13.23;5.60;;;;;;;;;;5013855;28;20217;-74
2021/06/01 05:56:28;;;;;;;15.80;4.90;;;;;;;;;;5001747;28;20525;-74
2021/06/01 05:59:33;;;;;;;8.03;4.80;;;;;;;;;;5022278;28;20189;-74
2021/06/01 06:02:37;;;;;;;7.47;4.70;;;;;;;;;;5035730;28;20189;-74
2021/06/01 06:05:42;;;;;;;10.03;5.27;;;;;;;;;;5014879;28;20217;-74
2021/06/01 06:08:46;;;;;;;15.50;5.20;;;;;;;;;;5013738;28;20211;-74
2021/06/01 06:11:51;;;;;;;12.37;5.23;;;;;;;;;;5006846;28;20184;-74
2021/06/01 06:14:55;;;;;;;11.13;5.63;;;;;;;;;;5016245;28;20198;-74
2021/06/01 06:18:17;;;;;;;5.93;4.87;;;;;;;;;;5019860;28;20186;-74
2021/06/01 06:21:21;;;;;;;11.23;5.23;;;;;;;;;;5022440;28;20193;-74
2021/06/01 06:24:25;;;;;;;10.80;5.47;;;;;;;;;;5032682;28;20691;-75
2021/06/01 06:27:29;;;;;;;10.23;5.20;;;;;;;;;;5018314;28;20213;-74
2021/06/01 06:30:33;;;;;;;9.37;5.10;;;;;;;;;;5014384;28;20181;-74
2021/06/01 06:33:38;;;;;;;10.20;4.77;;;;;;;;;;5013307;28;20217;-74
2021/06/01 06:36:43;;;;;;;7.93;3.70;;;;;;;;;;5007829;28;20201;-74
2021/06/01 06:39:47;;;;;;;3.60;3.13;;;;;;;;;;5018386;28;20656;-74
2021/06/01 06:42:52;;;;;;;8.33;3.20;;;;;;;;;;5032507;28;20220;-74
2021/06/01 06:45:56;;;;;;;3.10;2.70;;;;;;;;;;5030713;28;20667;-74
2021/06/01 06:49:03;;;;;;;17.37;3.67;;;;;;;;;;5011069;28;20201;-74
2021/06/01 06:52:10;;;;;;;5.17;2.60;;;;;;;;;;5018112;28;20193;-74
2021/06/01 06:55:15;;;;;;;3.13;2.30;;;;;;;;;;5001178;28;20189;-74
2021/06/01 06:58:20;;;;;;;3.37;2.60;;;;;;;;;;5012897;28;20190;-74
2021/06/01 07:01:27;;;;;;;4.20;2.90;;;;;;;;;;5013140;28;20209;-75
2021/06/01 07:04:31;;;;;;;6.53;2.70;;;;;;;;;;5012774;28;20228;-75
2021/06/01 07:07:35;;;;;;;3.40;2.70;;;;;;;;;;5014807;28;20217;-75
2021/06/01 07:10:39;;;;;;;4.10;2.50;;;;;;;;;;5008144;28;20200;-74
2021/06/01 07:13:43;;;;;;;3.80;2.50;;;;;;;;;;5031835;28;20221;-74
2021/06/01 07:16:48;;;;;;;3.53;2.40;;;;;;;;;;5019927;28;20190;-75
2021/06/01 07:19:55;;;;;;;4.57;2.20;;;;;;;;;;5014996;28;20201;-75
2021/06/01 07:23:01;;;;;;;4.37;2.20;;;;;;;;;;5032612;28;20209;-75
2021/06/01 07:26:06;;;;;;;3.33;2.07;;;;;;;;;;5027650;28;20554;-75
2021/06/01 07:29:11;;;;;;;4.17;2.47;;;;;;;;;;5012832;28;20174;-75
2021/06/01 07:32:15;;;;;;;7.60;2.60;;;;;;;;;;5012658;28;20621;-75
2021/06/01 07:35:21;;;;;;;3.33;2.10;;;;;;;;;;5006734;28;20197;-74
2021/06/01 07:38:26;;;;;;;3.17;2.40;;;;;;;;;;5026463;28;20190;-74
2021/06/01 07:41:30;;;;;;;2.23;2.00;;;;;;;;;;5016388;28;20193;-74
2021/06/01 07:44:35;;;;;;;5.30;2.00;;;;;;;;;;5015900;28;20217;-74
2021/06/01 07:47:39;;;;;;;5.00;2.63;;;;;;;;;;5016168;28;20209;-75
2021/06/01 07:50:43;;;;;;;2.33;1.87;;;;;;;;;;5016297;28;20185;-75
2021/06/01 07:53:48;;;;;;;4.33;1.93;;;;;;;;;;5016362;28;20217;-75
2021/06/01 07:56:52;;;;;;;1.73;1.63;;;;;;;;;;5015762;28;20177;-74
2021/06/01 07:59:56;;;;;;;5.50;2.17;;;;;;;;;;5023153;28;20188;-75
2021/06/01 08:03:00;;;;;;;4.97;2.03;;;;;;;;;;5020781;28;20220;-74
2021/06/01 08:06:05;;;;;;;2.93;2.07;;;;;;;;;;5033103;28;20204;-74
2021/06/01 08:09:09;;;;;;;3.40;1.90;;;;;;;;;;5015830;28;20620;-75
2021/06/01 08:12:13;;;;;;;2.93;2.03;;;;;;;;;;5021371;28;20536;-75
2021/06/01 08:15:19;;;;;;;2.83;2.07;;;;;;;;;;5004241;28;20189;-75
2021/06/01 08:18:26;;;;;;;3.60;2.17;;;;;;;;;;5015603;28;20180;-75
2021/06/01 08:24:54;;;;;;;3.10;1.90;;;;;;;;;;5022459;28;20181;-74
2021/06/01 08:27:58;;;;;;;3.50;2.20;;;;;;;;;;5034826;28;20221;-75
2021/06/01 08:31:03;;;;;;;5.37;1.90;;;;;;;;;;5023243;28;20512;-74
2021/06/01 08:34:08;;;;;;;1.70;1.60;;;;;;;;;;5020797;28;20222;-75
2021/06/01 08:37:12;;;;;;;3.50;2.20;;;;;;;;;;5023253;28;20623;-75
2021/06/01 08:40:17;;;;;;;3.90;2.07;;;;;;;;;;5034726;28;20181;-75
2021/06/01 08:43:25;;;;;;;3.60;2.00;;;;;;;;;;5031940;28;20680;-75
2021/06/01 08:46:30;;;;;;;2.43;2.00;;;;;;;;;;5028153;28;20207;-74
2021/06/01 08:49:37;;;;;;;3.30;1.97;;;;;;;;;;5028846;28;20217;-75
2021/06/01 08:52:42;;;;;;;2.57;2.13;;;;;;;;;;5020659;28;20217;-74
2021/06/01 08:55:47;;;;;;;4.53;2.37;;;;;;;;;;5009094;28;20197;-75
2021/06/01 08:58:51;;;;;;;3.60;1.90;;;;;;;;;;5010666;28;20195;-73
2021/06/01 09:01:55;;;;;;;6.87;2.50;;;;;;;;;;5018441;28;20571;-73
2021/06/01 09:05:03;;;;;;;2.53;2.00;;;;;;;;;;5019692;28;20192;-73
2021/06/01 09:08:10;;;;;;;6.40;2.05;;;;;;;;;;5002665;28;20213;-73
2021/06/01 09:15:05;;;;;;;8.43;2.30;;;;;;;;;;5026976;28;20223;-73
2021/06/01 09:21:47;;;;;;;3.10;2.28;;;;;;;;;;5015306;28;20195;-73
2021/06/01 09:25:00;;;;;;;3.75;1.95;;;;;;;;;;5002597;28;20193;-73
2021/06/01 09:28:06;;;;;;;3.63;1.90;;;;;;;;;;5001870;28;20206;-73
2021/06/01 09:31:16;;;;;;;2.55;2.13;;;;;;;;;;5002363;28;20539;-73
2021/06/01 09:34:24;;;;;;;3.50;2.45;;;;;;;;;;5013963;28;20229;-74
2021/06/01 09:37:32;;;;;;;13.02;3.20;;;;;;;;;;5027223;28;20190;-73
2021/06/01 09:40:37;;;;;;;3.03;1.80;;;;;;;;;;5029762;28;20192;-73
2021/06/01 09:43:49;;;;;;;2.60;2.30;;;;;;;;;;5001757;28;20218;-74
2021/06/01 09:46:53;;;;;;;7.47;2.40;;;;;;;;;;5013727;28;20737;-74
2021/06/01 09:50:13;;;;;;;4.28;2.08;;;;;;;;;;5013747;28;20179;-74
2021/06/01 09:56:31;;;;;;;3.45;2.20;;;;;;;;;;5020654;28;20635;-74
2021/06/01 09:59:35;;;;;;;3.90;1.90;;;;;;;;;;5021100;28;20172;-74
2021/06/01 10:02:41;;;;;;;3.45;2.50;;;;;;;;;;5006164;28;20218;-73
2021/06/01 10:05:48;;;;;;;5.88;1.95;;;;;;;;;;5007012;28;20200;-73
2021/06/01 10:08:53;;;;;;;4.55;1.85;;;;;;;;;;5013697;28;20549;-74
2021/06/01 10:11:58;;;;;;;4.38;2.38;;;;;;;;;;5010460;28;20196;-73
2021/06/01 10:15:03;;;;;;;3.35;2.10;;;;;;;;;;5031468;28;20196;-72
2021/06/01 10:18:10;;;;;;;3.53;1.88;;;;;;;;;;5002377;28;20181;-72
2021/06/01 10:21:20;;;;;;;4.88;2.10;;;;;;;;;;5020076;28;20651;-72
2021/06/01 10:24:24;;;;;;;3.72;2.00;;;;;;;;;;5021534;28;20227;-72
2021/06/01 10:27:28;;;;;;;2.55;2.00;;;;;;;;;;5032692;28;20212;-72
2021/06/01 10:30:38;;;;;;;2.50;1.90;;;;;;;;;;5013526;28;20183;-73
2021/06/01 10:33:55;;;;;;;2.65;2.20;;;;;;;;;;5013303;28;20214;-73
2021/06/01 10:44:16;;;;;;;3.53;1.55;;;;;;;;;;5021561;28;20218;-72
2021/06/01 10:50:54;;;;;;;3.35;2.42;;;;;;;;;;5013438;28;20201;-73
2021/06/01 10:53:58;;;;;;;5.00;1.92;;;;;;;;;;5013183;28;20218;-72
2021/06/01 10:57:02;;;;;;;3.83;1.80;;;;;;;;;;5013202;28;20182;-74
2021/06/01 11:04:14;;;;;;;7.13;2.20;;;;;;;;;;5001205;28;20222;-74
2021/06/01 11:07:26;;;;;;;3.40;1.50;;;;;;;;;;5002301;28;20213;-74
2021/06/01 11:10:41;;;;;;;5.32;1.90;;;;;;;;;;5017077;28;20195;-74
2021/06/01 11:13:45;;;;;;;6.70;2.13;;;;;;;;;;5004720;28;20694;-73
2021/06/01 11:16:56;;;;;;;3.33;1.88;;;;;;;;;;5029999;28;20192;-74
2021/06/01 11:20:15;;;;;;;2.70;1.77;;;;;;;;;;5035858;28;20226;-73
2021/06/01 11:23:31;;;;;;;3.72;2.05;;;;;;;;;;5005457;28;20222;-73
2021/06/01 11:33:44;;;;;;;4.65;2.35;;;;;;;;;;5034550;28;20732;-73
2021/06/01 11:36:48;;;;;;;2.38;2.05;;;;;;;;;;5019975;28;20196;-75
2021/06/01 11:40:19;;;;;;;3.40;2.00;;;;;;;;;;5025142;28;20207;-75
2021/06/01 11:43:20;;;;;;;2.47;2.08;;;;;;;;;;5035888;28;20222;-75
2021/06/01 11:53:15;;;;;;;4.13;2.00;;;;;;;;;;5016443;28;20697;-75
2021/06/01 11:56:34;;;;;;;2.65;2.15;;;;;;;;;;5035815;28;20174;-75
2021/06/01 12:11:33;;;;;;;2.45;1.48;;;;;;;;;;5035242;28;20205;-74
2021/06/01 12:21:38;;;;;;;5.72;1.52;;;;;;;;;;5035363;28;20189;-74
2021/06/01 12:24:43;;;;;;;2.97;1.85;;;;;;;;;;5012049;28;20209;-74
2021/06/01 12:28:00;;;;;;;9.23;2.05;;;;;;;;;;5022319;28;20210;-74
2021/06/01 12:31:05;;;;;;;3.72;1.65;;;;;;;;;;5014582;28;20190;-74
2021/06/01 12:34:14;;;;;;;3.85;1.55;;;;;;;;;;5015441;28;20224;-74
2021/06/01 12:44:07;;;;;;;5.30;1.58;;;;;;;;;;5029054;28;20214;-74
2021/06/01 13:21:49;;;;;;;3.47;1.70;;;;;;;;;;5016876;28;20190;-74
2021/06/01 13:39:24;;;;;;;6.43;1.50;;;;;;;;;;5043088;28;20195;-74
2021/06/01 13:55:35;;;;;;;3.80;1.20;;;;;;;;;;5027694;28;20522;-74
2021/06/01 14:15:37;;;;;;;2.83;1.50;;;;;;;;;;5026087;28;20735;-77
2021/06/01 14:35:42;;;;;;;51.47;4.97;;;;;;;;;;5000184;28;20527;-76
2021/06/01 14:56:53;;;;;;;7.68;1.55;;;;;;;;;;5033198;28;20183;-74
2021/06/01 15:30:10;;;;;;;7.20;1.65;;;;;;;;;;5036087;28;20549;-76
2021/06/01 15:50:31;;;;;;;6.20;1.70;;;;;;;;;;5035616;28;20228;-76
2021/06/01 15:53:49;;;;;;;2.70;1.80;;;;;;;;;;5034522;28;20217;-76
2021/06/01 17:05:09;;;;;;;4.60;2.07;;;;;;;;;;5002156;28;20186;-75
2021/06/01 17:08:40;;;;;;;5.10;1.70;;;;;;;;;;5013997;28;20173;-75
2021/06/01 17:11:49;;;;;;;5.37;2.10;;;;;;;;;;5014773;28;20181;-75
2021/06/01 17:14:55;;;;;;;3.10;1.53;;;;;;;;;;5014384;28;20202;-75
2021/06/01 17:18:13;;;;;;;2.53;1.80;;;;;;;;;;5014577;28;20201;-75
2021/06/01 17:32:15;;;;;;;3.27;1.70;;;;;;;;;;5014416;28;20503;-76
2021/06/01 17:34:58;;;;;;;3.80;1.40;;;;;;;;;;5014149;28;20182;-76
2021/06/01 17:38:04;;;;;;;1.77;1.67;;;;;;;;;;5014028;28;20181;-75
2021/06/01 17:41:13;;;;;;;5.53;2.00;;;;;;;;;;5002196;28;20181;-75
2021/06/01 17:44:22;;;;;;;3.63;1.80;;;;;;;;;;5013048;28;20221;-76
2021/06/01 17:47:35;;;;;;;4.17;1.80;;;;;;;;;;5014109;28;20186;-76
2021/06/01 17:50:39;;;;;;;4.27;1.93;;;;;;;;;;5013728;28;20213;-76
2021/06/01 17:53:47;;;;;;;3.00;2.13;;;;;;;;;;5013996;28;20224;-75
2021/06/01 17:56:53;;;;;;;11.83;2.27;;;;;;;;;;5001875;28;20181;-75
2021/06/01 17:59:58;;;;;;;19.80;2.43;;;;;;;;;;5013923;28;20522;-75
2021/06/01 18:03:03;;;;;;;6.83;2.00;;;;;;;;;;5013746;28;20217;-75
2021/06/01 18:06:08;;;;;;;2.87;1.83;;;;;;;;;;5013890;28;20182;-75
2021/06/01 18:43:30;;;;;;;7.37;1.73;;;;;;;;;;5029289;28;20223;-75
2021/06/01 19:44:14;;;;;;;3.63;2.00;;;;;;;;;;5035413;28;20229;-74
2021/06/01 19:50:40;;;;;;;3.60;1.90;;;;;;;;;;5046020;28;20547;-73
2021/06/01 19:53:45;;;;;;;2.37;2.17;;;;;;;;;;5055285;28;20560;-74
2021/06/01 19:56:49;;;;;;;2.43;2.10;;;;;;;;;;5055394;28;20176;-75
2021/06/01 19:59:55;;;;;;;4.93;2.20;;;;;;;;;;5035261;28;20189;-74
2021/06/01 20:03:00;;;;;;;2.30;2.07;;;;;;;;;;5035427;28;20216;-74
2021/06/01 20:06:09;;;;;;;4.30;2.00;;;;;;;;;;5034893;28;20187;-74
2021/06/01 20:09:13;;;;;;;5.80;1.80;;;;;;;;;;5038459;28;20193;-73
2021/06/01 20:12:18;;;;;;;2.80;2.10;;;;;;;;;;5055543;28;20168;-73
2021/06/01 20:15:30;;;;;;;2.87;2.00;;;;;;;;;;5055053;28;20184;-73
2021/06/01 20:18:40;;;;;;;3.03;2.23;;;;;;;;;;5035248;28;20192;-75
2021/06/01 20:21:51;;;;;;;4.13;2.00;;;;;;;;;;5032055;28;20624;-74
2021/06/01 20:25:01;;;;;;;4.30;2.10;;;;;;;;;;5042238;28;20540;-74
2021/06/01 20:28:08;;;;;;;2.43;2.23;;;;;;;;;;5040084;28;20193;-73
2021/06/01 20:31:18;;;;;;;4.10;2.20;;;;;;;;;;5027456;28;20212;-73
2021/06/01 20:34:22;;;;;;;3.33;2.13;;;;;;;;;;5038461;28;20216;-73
2021/06/01 20:37:27;;;;;;;3.20;2.20;;;;;;;;;;5031223;28;20185;-74
2021/06/01 20:40:32;;;;;;;4.20;2.13;;;;;;;;;;5022322;28;20508;-74
2021/06/01 20:43:39;;;;;;;4.50;2.17;;;;;;;;;;5053308;28;20211;-75
2021/06/01 20:46:45;;;;;;;3.73;2.00;;;;;;;;;;5022302;28;20639;-73
2021/06/01 20:49:49;;;;;;;3.10;2.03;;;;;;;;;;5034301;28;20193;-74
2021/06/01 20:52:56;;;;;;;2.60;1.90;;;;;;;;;;5022371;28;20552;-74
2021/06/01 20:56:01;;;;;;;4.50;2.23;;;;;;;;;;5034160;28;20189;-74
2021/06/01 20:59:05;;;;;;;2.20;1.87;;;;;;;;;;5034318;28;20181;-74
2021/06/01 21:02:12;;;;;;;6.13;2.23;;;;;;;;;;5021855;28;20205;-74
2021/06/01 21:05:16;;;;;;;2.40;2.10;;;;;;;;;;5035454;28;20195;-73
2021/06/01 21:08:20;;;;;;;4.53;2.00;;;;;;;;;;5053013;28;20199;-74
2021/06/01 21:11:25;;;;;;;2.53;1.93;;;;;;;;;;5033969;28;20220;-74
2021/06/01 21:14:30;;;;;;;2.40;1.90;;;;;;;;;;5039583;28;20212;-73
2021/06/01 21:17:37;;;;;;;3.60;2.10;;;;;;;;;;5053958;28;20184;-74
2021/06/01 21:20:42;;;;;;;5.43;2.20;;;;;;;;;;5036043;28;20189;-75
2021/06/01 21:23:46;;;;;;;6.33;2.20;;;;;;;;;;5040878;28;20211;-75
2021/06/01 21:26:50;;;;;;;2.73;2.30;;;;;;;;;;5021895;28;20181;-74
2021/06/01 21:29:54;;;;;;;3.60;2.20;;;;;;;;;;5033478;28;20185;-74
2021/06/01 21:33:15;;;;;;;4.43;2.10;;;;;;;;;;5033571;28;20208;-74
2021/06/01 21:36:20;;;;;;;2.40;2.10;;;;;;;;;;5014477;28;20518;-74
2021/06/01 21:39:25;;;;;;;7.27;2.33;;;;;;;;;;5014283;28;20181;-73
2021/06/01 21:42:33;;;;;;;2.50;1.97;;;;;;;;;;5013983;28;20177;-74
2021/06/01 21:45:40;;;;;;;2.90;2.00;;;;;;;;;;5053112;28;20188;-74
2021/06/01 21:48:47;;;;;;;2.50;2.17;;;;;;;;;;5045501;28;20196;-74
2021/06/01 21:51:54;;;;;;;2.80;2.17;;;;;;;;;;5020585;28;20205;-74
2021/06/01 21:54:59;;;;;;;3.60;2.20;;;;;;;;;;5039177;28;20205;-74
2021/06/01 21:58:05;;;;;;;3.60;2.30;;;;;;;;;;5004628;28;20208;-75
2021/06/01 22:01:10;;;;;;;6.47;2.23;;;;;;;;;;5046910;28;20671;-75
2021/06/01 22:04:15;;;;;;;2.67;2.17;;;;;;;;;;5013560;28;20221;-74
2021/06/01 22:07:19;;;;;;;2.50;2.30;;;;;;;;;;5047391;28;20561;-74
2021/06/01 22:10:24;;;;;;;3.80;2.37;;;;;;;;;;5035656;28;20200;-74
2021/06/01 22:13:28;;;;;;;3.90;2.30;;;;;;;;;;5014740;28;20221;-74
2021/06/01 22:16:33;;;;;;;3.50;2.43;;;;;;;;;;5014112;28;20201;-74
2021/06/01 22:19:41;;;;;;;3.63;2.20;;;;;;;;;;5036253;28;20295;-74
2021/06/01 22:22:45;;;;;;;3.10;2.50;;;;;;;;;;5053220;28;20208;-74
2021/06/01 22:25:53;;;;;;;3.50;2.20;;;;;;;;;;5025446;28;20188;-74
2021/06/01 22:28:59;;;;;;;4.93;2.40;;;;;;;;;;5040776;28;20527;-74
2021/06/01 22:32:06;;;;;;;4.73;2.77;;;;;;;;;;5052874;28;20204;-74
2021/06/01 22:35:11;;;;;;;5.00;2.30;;;;;;;;;;5051089;28;20758;-75
2021/06/01 22:38:16;;;;;;;5.33;2.60;;;;;;;;;;5019871;28;20197;-75
2021/06/01 22:41:21;;;;;;;3.90;2.50;;;;;;;;;;5020842;28;20526;-74
2021/06/01 22:44:28;;;;;;;6.10;2.10;;;;;;;;;;5042004;28;20223;-74
2021/06/01 22:47:36;;;;;;;4.27;2.67;;;;;;;;;;5033476;28;20180;-74
2021/06/01 22:50:40;;;;;;;3.47;2.77;;;;;;;;;;5032741;28;20185;-74
2021/06/01 22:53:44;;;;;;;2.80;2.43;;;;;;;;;;5038728;28;20219;-74
2021/06/01 22:56:53;;;;;;;2.73;2.27;;;;;;;;;;5023324;28;20534;-74
2021/06/01 22:59:58;;;;;;;3.47;2.50;;;;;;;;;;5024917;28;20640;-74
2021/06/01 23:03:05;;;;;;;3.57;2.20;;;;;;;;;;5021926;28;20216;-74
2021/06/01 23:06:12;;;;;;;3.50;2.13;;;;;;;;;;5045007;28;20536;-74
2021/06/01 23:09:17;;;;;;;4.10;2.53;;;;;;;;;;5041847;28;20656;-74
2021/06/01 23:12:23;;;;;;;5.37;2.67;;;;;;;;;;5024330;28;20221;-74
2021/06/01 23:15:27;;;;;;;3.70;2.30;;;;;;;;;;5026765;28;20196;-75
2021/06/01 23:18:32;;;;;;;2.40;2.20;;;;;;;;;;5048138;28;20193;-75
2021/06/01 23:21:40;;;;;;;3.53;2.27;;;;;;;;;;5036562;28;20192;-74
2021/06/01 23:24:45;;;;;;;2.80;2.33;;;;;;;;;;5054859;28;20220;-74
2021/06/01 23:27:50;;;;;;;3.53;2.60;;;;;;;;;;5036375;28;20177;-74
2021/06/01 23:30:54;;;;;;;3.97;2.70;;;;;;;;;;5035919;28;20659;-74
2021/06/01 23:33:59;;;;;;;2.87;2.53;;;;;;;;;;5045748;28;20223;-74
2021/06/01 23:37:08;;;;;;;3.63;2.50;;;;;;;;;;5040425;28;20200;-74
2021/06/01 23:40:14;;;;;;;4.17;2.57;;;;;;;;;;5012556;28;20196;-74
2021/06/01 23:43:18;;;;;;;4.37;2.60;;;;;;;;;;5036033;28;20209;-74
2021/06/01 23:46:23;;;;;;;4.27;2.70;;;;;;;;;;5045113;28;20192;-74
2021/06/01 23:52:50;;;;;;;2.97;2.20;;;;;;;;;;5056024;28;20228;-74
2021/06/01 23:55:54;;;;;;;5.00;2.40;;;;;;;;;;5043685;28;20196;-74
2021/06/01 23:58:58;;;;;;;5.10;2.53;;;;;;;;;;5015132;28;20201;-74
